Terminal Aerodrome Forecast
Issued by NWS

Home | Current Version | Previous Version | Graphics & Text | Print | Product List | Glossary On
Versions: 1 2 3 4 5 6 7 8 9 10 11 12 13 14 15 16 17
000
FTUS43 KGRB 061100
TAFATW
TAF
KATW 061138Z 0612/0712 10006KT P6SM SCT015 OVC035
      TEMPO 0612/0615 -SHRA BKN015
     FM062000 13010KT P6SM SCT035 BKN070
     FM070300 15007KT 6SM BR SCT015 BKN035=

USA.gov is the U.S. government's official web portal to all federal, state and local government web resources and services.